This is the latest recevied weather packets stored in our database for station/object EA1FWM-12. If no packets are shown the sender has not sent any weather packets the latest 10 day(s).
| Time | Temp. | Humidity | Pressure | Rain* | Wind** | Luminosity | Snow |
|---|---|---|---|---|---|---|---|
| 1788052583 | 15.56° C | 87% | 1023.5 hPa | - | - | - | - |
| 1788051684 | 15.56° C | 87% | 1023.6 hPa | - | - | - | - |
| 1788050784 | 15.56° C | 87% | 1023.6 hPa | - | - | - | - |
| 1788048984 | 15.56° C | 86% | 1023.7 hPa | - | - | - | - |
| 1788048085 | 16.11° C | 87% | 1023.7 hPa | - | - | - | - |
| 1788047185 | 16.11° C | 86% | 1023.6 hPa | - | - | - | - |
| 1788046286 | 16.11° C | 86% | 1024 hPa | - | - | - | - |
| 1788045421 | 15.56° C | 86% | 1023.8 hPa | - | - | - | - |
| 1788045386 | 15.56° C | 86% | 1023.8 hPa | - | - | - | - |
| 1788044486 | 16.11° C | 85% | 1023.9 hPa | - | - | - | - |
| 1788043586 | 16.11° C | 86% | 1023.9 hPa | - | - | - | - |
| 1788042686 | 16.11° C | 85% | 1024.1 hPa | - | - | - | - |
| 1788041786 | 16.11° C | 85% | 1024.1 hPa | - | - | - | - |
| 1788040887 | 16.11° C | 85% | 1024.2 hPa | - | - | - | - |
| 1788039088 | 16.11° C | 85% | 1024.1 hPa | - | - | - | - |
| 1788038188 | 16.11° C | 85% | 1024.2 hPa | - | - | - | - |
| 1788037288 | 18.33° C | 85% | 1024.2 hPa | - | - | - | - |
| 1788032012 | 16.67° C | 81% | 1023.9 hPa | - | - | - | - |
| 1788031108 | 17.22° C | 78% | 1023.7 hPa | - | - | - | - |
| 1788028414 | 18.89° C | 74% | 1023.5 hPa | - | - | - | - |
| 1788022105 | 23.33° C | 65% | 1023.7 hPa | - | - | - | - |
| 1788021213 | 22.78° C | 66% | 1023.8 hPa | - | - | - | - |
| 1788020305 | 22.22° C | 65% | 1023.7 hPa | - | - | - | - |
| 1788018504 | 24.44° C | 61% | 1023.9 hPa | - | - | - | - |
| 1788017611 | 24.44° C | 60% | 1024 hPa | - | - | - | - |
* Rain since midnight (hover to see other rain measurements)
** Current wind speed in m/s (hover to see current wind gust speed)